Current Mesonet Data Display

Graphs and maps are handy to obtain an immediate visual picture of what a weather variable has done over time and space. Sometimes a meteorologist needs the actual numbers and those can be displayed in a table. One dimension (across) of the table shows the weather parameters, the other (up and down) shows the different weather stations of the mesonet. This way a meteorologist can make easy comparisons between different parameters and between different locations. The table below displays the current conditions at all of the USA Mesonet stations (A more detailed display is available at the CHILI website)


Station Observation Time Temperature Dew Point Pressure Wind Speed Wind Direction
Agricola2026-09-02 16:24:38 88.77°F 77.31°F 0.00" 1.68 mph 285.16°
Ashford North2026-09-02 16:25:07 90.42°F 74.86°F 30.14" 3.14 mph 19.84°
Atmore2026-09-02 16:25:09 87.61°F 77.74°F 0.00" 11.98 mph 211.82°
Bay Minette FS2026-09-02 16:25:03 87.25°F 77.22°F 30.20" 3.07 mph 286.22°
Bayou La Batre2026-09-02 16:25:05 86.60°F 78.02°F 0.00" 3.14 mph 145.33°
Castleberry2026-09-02 16:25:03 94.45°F 72.72°F 30.14" 0.00 mph 116.76°
Dixie2026-09-02 16:25:00 92.67°F 75.53°F 30.11" 0.66 mph 89.24°
Elberta2026-09-02 16:25:00 87.56°F 78.11°F 0.00" 1.97 mph 148.03°
Fairhope2026-09-02 16:25:01 88.48°F 77.64°F 0.00" 5.63 mph 150.55°
Florala2026-09-02 16:25:02 92.64°F 77.63°F 30.12" 0.00 mph 245.51°
Foley2026-09-02 16:25:04 87.27°F 77.47°F 11.44" 1.61 mph 340.58°
Gasque2026-09-02 16:25:07 89.19°F 77.53°F 30.10" 3.29 mph 140.64°
Geneva2026-09-02 16:24:57 91.59°F 71.98°F 0.00" 4.75 mph 159.22°
Grand Bay2026-09-02 16:24:59 86.20°F 77.35°F 0.00" 3.29 mph 196.57°
Jay2026-09-02 16:25:06 87.75°F 79.15°F 30.11" 5.12 mph 170.52°
Kinston2026-09-02 16:25:07 93.35°F 73.33°F 30.09" 1.39 mph 175.64°
Leakesville2026-09-02 16:25:03 92.45°F 75.05°F 0.00" 0.29 mph 188.12°
Loxley2026-09-02 16:25:11 85.90°F 79.52°F 0.00" 0.00 mph 170.02°
Mobile (Dog River)2026-09-02 16:25:00 89.17°F 72.12°F 0.00" 6.07 mph 125.05°
Mobile (USA Campus West)2026-09-02 16:24:57 90.44°F 73.22°F 0.00" 0.95 mph 158.33°
Montgomery2026-09-02 16:25:04 96.23°F 72.88°F N/A" 7.82 mph 37.19°
Mount Vernon2026-09-02 16:25:11 90.91°F 76.49°F 0.00" 2.70 mph 224.25°
Pascagoula2026-09-02 16:25:01 85.96°F 77.43°F 0.00" 3.80 mph 355.00°
Poarch Creek2026-09-02 16:25:02 90.17°F 77.07°F 0.00" 3.73 mph 206.28°
Robertsdale2026-09-02 16:25:06 86.22°F 79.02°F 14.16" 3.29 mph 157.18°
Saraland2026-09-02 16:24:57 91.44°F 76.15°F 0.00" 4.38 mph 117.46°